If you wish to contribute or participate in the discussions about articles you are invited to join SKYbrary as a registered user

 Actions

Le Puy-Loudes Airport

From SKYbrary Wiki

LFHP
Airport
ICAO: LFHP – IATA: LPY
Summary
Name Le Puy-Loudes Airport
Region Europe
Territory France FR.gif
Location , Auvergne
Serving Le Puy
Elevation 832.409 m
2,731 ft
2,731 ft832.409 m
Type medium airport
Coordinates 45° 4' 50.48" N, 3° 45' 46.40" E
Runways
Designator Length Width Surface ROPS
15/33 1445 m4,740.814 ft
30 m98.425 ft
ASP /
15R/33L 767 m2,516.404 ft
58 m190.289 ft
GRS /


METAR
Observation LFHP 231630Z AUTO 28005KT 210V350 CAVOK 22/00 Q1016
Station Le Puy
Date/Time 23 May 2019 16:30:00
Wind direction 280°
Wind speed 05 kts
Lowest cloud amount clouds and visibility OK
Temperature 22°C
Dew point 0°C
Humidity 23%
QNH 1016 hPa
Weather condition n/a